createdAt,value
2018-09-15T00:01:02.764Z,15.10
2018-09-15T00:03:31.424Z,15.00
2018-09-15T00:06:00.054Z,15.00
2018-09-15T00:08:28.721Z,14.90
2018-09-15T00:10:57.390Z,14.90
2018-09-15T00:13:26.024Z,14.90
2018-09-15T00:15:55.188Z,14.80
2018-09-15T00:18:23.764Z,14.90
2018-09-15T00:20:52.468Z,14.80
2018-09-15T00:23:21.040Z,14.80
2018-09-15T00:25:49.833Z,14.80
2018-09-15T00:28:18.502Z,14.80
2018-09-15T00:30:47.211Z,14.70
2018-09-15T00:33:15.975Z,14.70
2018-09-15T00:35:44.636Z,14.60
2018-09-15T00:38:13.329Z,14.70
2018-09-15T00:40:41.928Z,14.60
2018-09-15T00:43:10.570Z,14.60
2018-09-15T00:45:39.176Z,14.60
2018-09-15T00:48:07.814Z,14.60
2018-09-15T00:50:36.581Z,14.60
2018-09-15T00:53:05.242Z,14.70
2018-09-15T00:55:33.872Z,14.70
2018-09-15T00:58:02.506Z,14.60
2018-09-15T01:00:31.192Z,14.50
2018-09-15T01:02:59.927Z,14.50
2018-09-15T01:05:28.573Z,14.50
2018-09-15T01:07:57.208Z,14.50
2018-09-15T01:10:26.030Z,14.40
2018-09-15T01:12:54.698Z,14.30
2018-09-15T01:15:23.435Z,14.30
2018-09-15T01:17:52.064Z,14.20
2018-09-15T01:20:21.699Z,14.20
2018-09-15T01:22:50.359Z,14.20
2018-09-15T01:25:19.014Z,14.10
2018-09-15T01:27:47.761Z,14.10
2018-09-15T01:30:16.428Z,14.10
2018-09-15T01:32:45.032Z,14.00
2018-09-15T01:35:13.639Z,13.90
2018-09-15T01:37:42.300Z,13.90
2018-09-15T01:40:10.910Z,13.80
2018-09-15T01:42:39.564Z,13.80
2018-09-15T01:45:08.379Z,13.80
2018-09-15T01:47:36.902Z,13.70
2018-09-15T01:50:05.857Z,13.70
2018-09-15T01:52:35.135Z,13.70
2018-09-15T01:55:03.813Z,13.60
2018-09-15T01:57:32.457Z,13.60
2018-09-15T02:00:01.235Z,13.50
2018-09-15T02:02:29.922Z,13.60
2018-09-15T02:04:58.608Z,13.40
2018-09-15T02:07:27.358Z,13.40
2018-09-15T02:09:56.065Z,13.30
2018-09-15T02:12:25.155Z,13.20
2018-09-15T02:14:53.807Z,13.20
2018-09-15T02:17:22.438Z,13.20
2018-09-15T02:19:51.127Z,13.20
2018-09-15T02:22:19.822Z,13.20
2018-09-15T02:24:48.462Z,13.10
2018-09-15T02:27:17.126Z,13.10
2018-09-15T02:29:45.818Z,13.00
2018-09-15T02:32:14.529Z,13.00
2018-09-15T02:34:43.157Z,13.00
2018-09-15T02:37:11.948Z,12.90
2018-09-15T02:39:40.483Z,12.90
2018-09-15T02:42:09.125Z,12.90
2018-09-15T02:44:37.712Z,12.90
2018-09-15T02:47:06.593Z,12.90
2018-09-15T02:49:35.191Z,12.80
2018-09-15T02:52:03.887Z,12.90
2018-09-15T02:54:32.552Z,12.80
2018-09-15T02:57:01.230Z,12.80
2018-09-15T02:59:29.905Z,12.80
2018-09-15T03:01:58.531Z,12.90
2018-09-15T03:04:27.242Z,12.80
2018-09-15T03:06:55.885Z,12.80
2018-09-15T03:09:24.848Z,12.90
2018-09-15T03:11:53.531Z,12.80
2018-09-15T03:14:22.161Z,12.90
2018-09-15T03:16:50.764Z,12.80
2018-09-15T03:19:19.499Z,12.70
2018-09-15T03:21:48.352Z,12.70
2018-09-15T03:24:17.059Z,12.70
2018-09-15T03:26:45.789Z,12.70
2018-09-15T03:29:14.483Z,12.70
2018-09-15T03:31:43.163Z,12.80
2018-09-15T03:34:11.866Z,12.80
2018-09-15T03:36:40.589Z,12.70
2018-09-15T03:39:10.684Z,12.70
2018-09-15T03:41:39.401Z,12.70
2018-09-15T03:44:07.942Z,12.70
2018-09-15T03:46:36.702Z,12.80
2018-09-15T03:49:05.380Z,12.80
2018-09-15T03:51:34.298Z,12.80
2018-09-15T03:54:02.918Z,12.70
2018-09-15T03:56:31.635Z,12.70
2018-09-15T03:59:00.343Z,12.70
2018-09-15T04:01:28.929Z,12.70
2018-09-15T04:03:57.533Z,12.70
2018-09-15T04:06:26.161Z,12.60
2018-09-15T04:08:54.785Z,12.60
2018-09-15T04:11:23.401Z,12.60
2018-09-15T04:13:52.076Z,12.60
2018-09-15T04:16:20.645Z,12.50
2018-09-15T04:18:49.294Z,12.60
2018-09-15T04:21:17.929Z,12.50
2018-09-15T04:23:46.528Z,12.40
2018-09-15T04:26:15.150Z,12.50
2018-09-15T04:28:43.899Z,12.40
2018-09-15T04:31:12.569Z,12.30
2018-09-15T04:33:41.755Z,12.20
2018-09-15T04:36:10.428Z,12.30
2018-09-15T04:38:39.431Z,12.30
2018-09-15T04:41:08.216Z,12.30
2018-09-15T04:43:36.910Z,12.30
2018-09-15T04:46:05.924Z,12.30
2018-09-15T04:48:34.644Z,12.40
2018-09-15T04:51:03.335Z,12.40
2018-09-15T04:53:31.936Z,12.40
2018-09-15T04:56:00.684Z,12.40
2018-09-15T04:58:29.286Z,12.30
2018-09-15T05:00:57.973Z,12.30
2018-09-15T05:03:26.648Z,12.30
2018-09-15T05:05:55.238Z,12.20
2018-09-15T05:08:23.884Z,12.20
2018-09-15T05:10:52.513Z,12.20
2018-09-15T05:13:21.405Z,12.20
2018-09-15T05:15:50.144Z,12.20
2018-09-15T05:18:18.941Z,12.20
2018-09-15T05:20:47.652Z,12.20
2018-09-15T05:23:16.410Z,12.30
2018-09-15T05:25:45.102Z,12.30
2018-09-15T05:28:13.820Z,12.20
2018-09-15T05:30:42.741Z,12.30
2018-09-15T05:33:11.457Z,12.40
2018-09-15T05:35:40.250Z,12.40
2018-09-15T05:38:09.401Z,12.50
2018-09-15T05:40:38.163Z,12.50
2018-09-15T05:43:07.879Z,12.60
2018-09-15T05:45:36.443Z,12.70
2018-09-15T05:48:05.081Z,12.70
2018-09-15T05:50:34.317Z,12.80
2018-09-15T05:53:04.564Z,13.00
2018-09-15T05:55:33.216Z,13.30
2018-09-15T05:58:01.891Z,13.60
2018-09-15T06:00:30.674Z,13.80
2018-09-15T06:02:59.555Z,13.90
2018-09-15T06:05:28.295Z,13.80
2018-09-15T06:07:56.906Z,13.80
2018-09-15T06:10:25.660Z,13.60
2018-09-15T06:12:56.014Z,13.60
2018-09-15T06:15:24.812Z,13.50
2018-09-15T06:17:53.527Z,13.50
2018-09-15T06:20:22.209Z,13.40
2018-09-15T06:22:50.973Z,13.40
2018-09-15T06:25:19.654Z,13.40
2018-09-15T06:27:48.343Z,13.50
2018-09-15T06:30:17.118Z,13.50
2018-09-15T06:32:45.814Z,13.60
2018-09-15T06:35:14.675Z,13.70
2018-09-15T06:37:43.439Z,13.60
2018-09-15T06:40:12.141Z,13.70
2018-09-15T06:42:40.960Z,13.80
2018-09-15T06:45:10.463Z,13.80
2018-09-15T06:47:39.141Z,13.80
2018-09-15T06:50:07.954Z,14.00
2018-09-15T06:52:36.648Z,14.00
2018-09-15T06:55:05.990Z,14.20
2018-09-15T06:57:34.771Z,14.20
2018-09-15T07:00:03.610Z,14.30
2018-09-15T07:02:32.436Z,14.50
2018-09-15T07:05:01.282Z,14.60
2018-09-15T07:07:30.095Z,14.80
2018-09-15T07:09:58.874Z,14.90
2018-09-15T07:12:27.968Z,14.90
2018-09-15T07:14:56.654Z,14.80
2018-09-15T07:17:25.470Z,14.80
2018-09-15T07:19:54.453Z,14.80
2018-09-15T07:22:23.558Z,14.90
2018-09-15T07:24:52.420Z,15.00
2018-09-15T07:27:21.072Z,15.00
2018-09-15T07:29:49.787Z,15.10
2018-09-15T07:32:18.537Z,15.20
2018-09-15T07:34:47.900Z,15.40
2018-09-15T07:37:16.551Z,15.50
2018-09-15T07:39:45.158Z,15.60
2018-09-15T07:42:13.758Z,15.80
2018-09-15T07:44:42.507Z,16.00
2018-09-15T07:47:11.212Z,16.10
2018-09-15T07:49:39.975Z,16.30
2018-09-15T07:52:08.576Z,16.30
2018-09-15T07:54:37.223Z,16.30
2018-09-15T07:57:06.057Z,16.40
2018-09-15T07:59:34.763Z,16.50
2018-09-15T08:02:07.954Z,16.70
2018-09-15T08:04:36.685Z,16.80
2018-09-15T08:07:05.363Z,16.90
2018-09-15T08:09:34.160Z,17.00
2018-09-15T08:12:02.975Z,17.10
2018-09-15T08:14:31.668Z,17.00
2018-09-15T08:17:00.797Z,17.10
2018-09-15T08:19:29.537Z,17.20
2018-09-15T08:21:58.642Z,17.30
2018-09-15T08:24:27.546Z,17.40
2018-09-15T08:26:56.254Z,17.50
2018-09-15T08:29:25.150Z,17.50
2018-09-15T08:31:53.924Z,17.50
2018-09-15T08:34:22.713Z,17.50
2018-09-15T08:36:52.200Z,17.60
2018-09-15T08:39:20.937Z,17.50
2018-09-15T08:41:50.357Z,17.60
2018-09-15T08:44:19.055Z,17.70
2018-09-15T08:46:47.701Z,17.90
2018-09-15T08:49:16.474Z,17.90
2018-09-15T08:51:45.825Z,18.10
2018-09-15T08:54:14.544Z,18.10
2018-09-15T08:56:43.575Z,18.10
2018-09-15T08:59:12.245Z,18.10
2018-09-15T09:01:41.046Z,18.10
2018-09-15T09:04:09.796Z,18.10
2018-09-15T09:06:38.606Z,18.20
2018-09-15T09:09:10.915Z,18.20
2018-09-15T09:11:39.645Z,18.20
2018-09-15T09:14:09.247Z,18.10
2018-09-15T09:16:38.376Z,17.80
2018-09-15T09:19:07.195Z,17.90
2018-09-15T09:21:35.788Z,18.10
2018-09-15T09:24:04.643Z,17.70
2018-09-15T09:26:33.739Z,17.70
2018-09-15T09:29:02.666Z,17.60
2018-09-15T09:31:32.094Z,17.70
2018-09-15T09:34:00.849Z,17.50
2018-09-15T09:36:29.544Z,17.50
2018-09-15T09:38:59.209Z,17.60
2018-09-15T09:41:27.913Z,18.00
2018-09-15T09:43:56.560Z,18.20
2018-09-15T09:46:25.227Z,18.40
2018-09-15T09:48:53.951Z,18.50
2018-09-15T09:51:23.223Z,18.70
2018-09-15T09:53:52.132Z,18.90
2018-09-15T09:56:20.853Z,18.70
2018-09-15T09:58:49.684Z,18.70
2018-09-15T10:01:23.641Z,18.50
2018-09-15T10:03:52.816Z,18.50
2018-09-15T10:06:21.519Z,18.80
2018-09-15T10:08:50.591Z,19.00
2018-09-15T10:11:19.477Z,19.00
2018-09-15T10:13:48.614Z,19.00
2018-09-15T10:16:17.618Z,19.20
2018-09-15T10:18:46.867Z,19.40
2018-09-15T10:21:16.037Z,19.40
2018-09-15T10:23:44.882Z,19.40
2018-09-15T10:26:13.687Z,18.90
2018-09-15T10:28:42.478Z,18.80
2018-09-15T10:31:11.231Z,18.90
2018-09-15T10:33:40.383Z,19.10
2018-09-15T10:36:09.016Z,19.20
2018-09-15T10:38:37.837Z,19.10
2018-09-15T10:41:07.066Z,19.10
2018-09-15T10:43:35.821Z,19.10
2018-09-15T10:46:05.533Z,19.20
2018-09-15T10:48:34.410Z,19.40
2018-09-15T10:51:03.296Z,19.60
2018-09-15T10:53:32.095Z,19.80
2018-09-15T10:56:00.935Z,19.70
2018-09-15T10:58:29.881Z,19.50
2018-09-15T11:00:58.697Z,19.20
2018-09-15T11:03:27.457Z,19.10
2018-09-15T11:05:56.277Z,18.90
2018-09-15T11:08:25.328Z,19.00
2018-09-15T11:10:54.098Z,18.80
2018-09-15T11:13:23.232Z,18.90
2018-09-15T11:15:51.897Z,18.80
2018-09-15T11:18:20.465Z,18.80
2018-09-15T11:20:49.855Z,18.90
2018-09-15T11:23:18.612Z,18.90
2018-09-15T11:25:47.239Z,18.70
2018-09-15T11:28:15.993Z,18.70
2018-09-15T11:30:44.713Z,18.90
2018-09-15T11:33:13.386Z,18.60
2018-09-15T11:35:42.115Z,18.40
2018-09-15T11:38:10.852Z,18.50
2018-09-15T11:40:39.423Z,18.50
2018-09-15T11:43:08.100Z,18.60
2018-09-15T11:45:37.231Z,18.60
2018-09-15T11:48:05.990Z,18.60
2018-09-15T11:50:34.676Z,18.50
2018-09-15T11:53:03.668Z,18.40
2018-09-15T11:55:32.325Z,18.30
2018-09-15T11:58:01.008Z,18.40
2018-09-15T12:00:33.142Z,18.50
2018-09-15T12:03:01.799Z,18.60
2018-09-15T12:05:30.386Z,18.50
2018-09-15T12:07:59.061Z,18.60
2018-09-15T12:10:27.732Z,18.40
2018-09-15T12:13:00.544Z,18.40
2018-09-15T12:15:29.186Z,18.40
2018-09-15T12:17:58.738Z,18.40
2018-09-15T12:20:27.484Z,18.50
2018-09-15T12:22:56.059Z,18.70
2018-09-15T12:25:24.765Z,18.70
2018-09-15T12:27:53.535Z,18.90
2018-09-15T12:30:22.343Z,19.00
2018-09-15T12:32:51.636Z,19.20
2018-09-15T12:35:20.341Z,19.30
2018-09-15T12:37:49.006Z,19.30
2018-09-15T12:40:17.676Z,19.30
2018-09-15T12:42:46.317Z,19.10
2018-09-15T12:45:15.386Z,19.10
2018-09-15T12:47:44.097Z,19.00
2018-09-15T12:50:12.745Z,19.00
2018-09-15T12:52:41.383Z,18.90
2018-09-15T12:55:10.036Z,18.60
2018-09-15T12:57:38.751Z,18.50
2018-09-15T13:00:07.471Z,18.50
2018-09-15T13:02:36.163Z,18.50
2018-09-15T13:05:04.897Z,18.40
2018-09-15T13:07:33.604Z,18.20
2018-09-15T13:10:02.335Z,18.40
2018-09-15T13:12:30.985Z,18.50
2018-09-15T13:14:59.588Z,18.40
2018-09-15T13:17:28.288Z,18.60
2018-09-15T13:19:56.895Z,18.60
2018-09-15T13:22:25.555Z,18.60
2018-09-15T13:24:54.194Z,18.80
2018-09-15T13:27:22.937Z,18.80
2018-09-15T13:29:51.794Z,19.00
2018-09-15T13:32:20.388Z,19.20
2018-09-15T13:34:49.106Z,19.30
2018-09-15T13:37:17.921Z,19.00
2018-09-15T13:39:46.533Z,19.10
2018-09-15T13:42:15.147Z,19.00
2018-09-15T13:44:43.828Z,19.10
2018-09-15T13:47:12.579Z,19.00
2018-09-15T13:49:41.257Z,18.90
2018-09-15T13:52:10.013Z,18.70
2018-09-15T13:54:38.653Z,18.70
2018-09-15T13:57:07.366Z,18.80
2018-09-15T13:59:36.945Z,18.80
2018-09-15T14:02:05.631Z,18.70
2018-09-15T14:04:34.320Z,18.80
2018-09-15T14:07:03.107Z,18.90
2018-09-15T14:09:31.759Z,18.90
2018-09-15T14:12:00.440Z,18.90
2018-09-15T14:14:29.172Z,19.10
2018-09-15T14:16:57.850Z,19.10
2018-09-15T14:19:26.613Z,19.30
2018-09-15T14:21:55.231Z,19.40
2018-09-15T14:24:23.909Z,19.60
2018-09-15T14:26:52.762Z,19.70
2018-09-15T14:29:21.473Z,19.80
2018-09-15T14:31:50.222Z,19.70
2018-09-15T14:34:18.927Z,19.60
2018-09-15T14:36:47.627Z,19.50
2018-09-15T14:39:16.300Z,19.50
2018-09-15T14:41:44.954Z,19.40
2018-09-15T14:44:13.604Z,19.40
2018-09-15T14:46:42.817Z,19.30
2018-09-15T14:49:11.386Z,19.30
2018-09-15T14:51:40.009Z,19.30
2018-09-15T14:54:08.785Z,19.20
2018-09-15T14:56:37.370Z,19.30
2018-09-15T14:59:06.233Z,19.40
2018-09-15T15:01:34.963Z,19.50
2018-09-15T15:04:03.588Z,19.30
2018-09-15T15:06:32.306Z,19.20
2018-09-15T15:09:01.177Z,19.30
2018-09-15T15:11:30.048Z,19.40
2018-09-15T15:13:58.674Z,19.50
2018-09-15T15:16:27.365Z,19.40
2018-09-15T15:18:56.098Z,19.40
2018-09-15T15:21:24.748Z,19.40
2018-09-15T15:23:53.404Z,19.50
2018-09-15T15:26:22.218Z,19.40
2018-09-15T15:28:50.771Z,19.60
2018-09-15T15:31:19.397Z,19.80
2018-09-15T15:33:48.020Z,19.90
2018-09-15T15:36:16.815Z,20.10
2018-09-15T15:38:45.433Z,20.20
2018-09-15T15:41:14.194Z,20.20
2018-09-15T15:43:42.771Z,20.00
2018-09-15T15:46:12.045Z,19.90
2018-09-15T15:48:40.674Z,19.90
2018-09-15T15:51:09.274Z,19.90
2018-09-15T15:53:38.100Z,19.90
2018-09-15T15:56:06.811Z,19.90
2018-09-15T15:58:35.513Z,19.90
2018-09-15T16:01:04.073Z,19.80
2018-09-15T16:03:32.770Z,19.90
2018-09-15T16:06:01.386Z,20.00
2018-09-15T16:08:30.697Z,20.00
2018-09-15T16:10:59.261Z,19.90
2018-09-15T16:13:29.057Z,19.80
2018-09-15T16:15:57.735Z,19.90
2018-09-15T16:18:26.551Z,19.90
2018-09-15T16:20:55.175Z,19.70
2018-09-15T16:23:23.905Z,19.80
2018-09-15T16:25:52.541Z,19.80
2018-09-15T16:28:21.287Z,19.70
2018-09-15T16:30:50.603Z,19.70
2018-09-15T16:33:19.324Z,19.60
2018-09-15T16:35:47.936Z,19.60
2018-09-15T16:38:16.952Z,19.60
2018-09-15T16:40:45.680Z,19.60
2018-09-15T16:43:14.265Z,19.60
2018-09-15T16:45:42.892Z,19.60
2018-09-15T16:48:11.560Z,19.50
2018-09-15T16:50:40.115Z,19.60
2018-09-15T16:53:08.872Z,19.50
2018-09-15T16:55:38.426Z,19.50
2018-09-15T16:58:07.146Z,19.50
2018-09-15T17:00:35.796Z,19.40
2018-09-15T17:03:04.406Z,19.30
2018-09-15T17:05:33.042Z,19.30
2018-09-15T17:08:01.668Z,19.20
2018-09-15T17:10:30.346Z,19.20
2018-09-15T17:12:59.006Z,19.20
2018-09-15T17:15:27.672Z,19.20
2018-09-15T17:17:56.280Z,19.10
2018-09-15T17:20:26.143Z,19.10
2018-09-15T17:22:54.980Z,19.00
2018-09-15T17:25:23.767Z,18.90
2018-09-15T17:27:52.585Z,18.90
2018-09-15T17:30:21.559Z,18.80
2018-09-15T17:32:50.818Z,18.70
2018-09-15T17:35:19.590Z,18.60
2018-09-15T17:37:48.196Z,18.60
2018-09-15T17:40:16.907Z,18.60
2018-09-15T17:42:45.818Z,18.60
2018-09-15T17:45:14.574Z,18.60
2018-09-15T17:47:43.248Z,18.50
2018-09-15T17:50:11.996Z,18.50
2018-09-15T17:52:40.753Z,18.50
2018-09-15T17:55:09.532Z,18.50
2018-09-15T17:57:38.316Z,18.60
2018-09-15T18:00:07.575Z,18.60
2018-09-15T18:02:36.467Z,18.70
2018-09-15T18:05:05.171Z,18.60
2018-09-15T18:07:33.839Z,18.70
2018-09-15T18:10:03.067Z,18.60
2018-09-15T18:12:31.795Z,18.60
2018-09-15T18:15:00.706Z,18.60
2018-09-15T18:17:29.479Z,18.50
2018-09-15T18:19:58.128Z,18.50
2018-09-15T18:22:27.010Z,18.40
2018-09-15T18:24:55.617Z,18.50
2018-09-15T18:27:24.259Z,18.60
2018-09-15T18:29:52.930Z,18.50
2018-09-15T18:32:21.563Z,18.50
2018-09-15T18:34:50.330Z,18.50
2018-09-15T18:37:18.977Z,18.50
2018-09-15T18:39:47.615Z,18.40
2018-09-15T18:42:16.284Z,18.50
2018-09-15T18:44:45.167Z,18.40
2018-09-15T18:47:14.059Z,18.40
2018-09-15T18:49:43.002Z,18.30
2018-09-15T18:52:11.938Z,18.20
2018-09-15T18:54:40.736Z,18.20
2018-09-15T18:57:09.694Z,18.10
2018-09-15T18:59:39.093Z,18.00
2018-09-15T19:02:07.760Z,18.00
2018-09-15T19:04:36.392Z,18.00
2018-09-15T19:07:05.109Z,17.80
2018-09-15T19:09:33.910Z,17.80
2018-09-15T19:12:02.658Z,17.70
2018-09-15T19:14:31.306Z,17.60
2018-09-15T19:17:00.001Z,17.60
2018-09-15T19:19:28.798Z,17.50
2018-09-15T19:21:57.465Z,17.50
2018-09-15T19:24:26.271Z,17.40
2018-09-15T19:26:55.256Z,17.30
2018-09-15T19:29:24.220Z,17.20
2018-09-15T19:31:52.900Z,17.20
2018-09-15T19:34:21.601Z,17.20
2018-09-15T19:36:50.423Z,17.10
2018-09-15T19:42:01.921Z,17.00
2018-09-15T19:44:30.626Z,17.00
2018-09-15T19:46:59.458Z,16.90
2018-09-15T19:49:28.254Z,16.80
2018-09-15T19:51:57.018Z,16.80
2018-09-15T19:54:26.296Z,16.80
2018-09-15T19:56:55.746Z,16.80
2018-09-15T19:59:24.353Z,16.60
2018-09-15T20:01:52.995Z,16.60
2018-09-15T20:04:21.696Z,16.60
2018-09-15T20:06:50.488Z,16.70
2018-09-15T20:09:19.191Z,16.60
2018-09-15T20:11:48.267Z,16.60
2018-09-15T20:14:17.153Z,16.60
2018-09-15T20:16:44.585Z,16.60
2018-09-15T20:19:12.109Z,16.50
2018-09-15T20:21:39.480Z,16.50
2018-09-15T20:24:08.230Z,16.50
2018-09-15T20:26:36.989Z,16.40
2018-09-15T20:29:06.154Z,16.40
2018-09-15T20:31:34.771Z,16.30
2018-09-15T20:34:03.463Z,16.20
2018-09-15T20:36:32.130Z,16.20
2018-09-15T20:39:00.956Z,16.10
2018-09-15T20:41:30.006Z,16.10
2018-09-15T20:43:59.936Z,16.10
2018-09-15T20:46:28.643Z,16.10
2018-09-15T20:48:57.302Z,16.10
2018-09-15T20:51:26.019Z,16.10
2018-09-15T20:53:54.691Z,16.10
2018-09-15T20:56:23.434Z,16.10
2018-09-15T20:58:52.109Z,16.10
2018-09-15T21:01:20.828Z,16.10
2018-09-15T21:03:49.494Z,16.10
2018-09-15T21:06:18.158Z,16.00
2018-09-15T21:08:46.753Z,16.00
2018-09-15T21:11:15.319Z,16.00
2018-09-15T21:13:44.091Z,16.00
2018-09-15T21:16:12.754Z,15.90
2018-09-15T21:18:41.450Z,15.90
2018-09-15T21:21:10.179Z,15.80
2018-09-15T21:23:38.727Z,15.90
2018-09-15T21:26:07.409Z,15.80
2018-09-15T21:28:36.097Z,15.70
2018-09-15T21:31:04.892Z,15.70
2018-09-15T21:33:33.734Z,15.60
2018-09-15T21:36:02.415Z,15.60
2018-09-15T21:38:31.214Z,15.60
2018-09-15T21:41:00.824Z,15.50
2018-09-15T21:43:29.638Z,15.50
2018-09-15T21:45:58.297Z,15.50
2018-09-15T21:48:27.127Z,15.40
2018-09-15T21:50:55.873Z,15.40
2018-09-15T21:53:24.539Z,15.40
2018-09-15T21:55:53.325Z,15.30
2018-09-15T21:58:21.969Z,15.30
2018-09-15T22:00:55.094Z,15.30
2018-09-15T22:03:23.776Z,15.30
2018-09-15T22:05:52.634Z,15.40
2018-09-15T22:08:21.455Z,15.30
2018-09-15T22:10:50.820Z,15.20
2018-09-15T22:13:19.635Z,15.30
2018-09-15T22:15:48.303Z,15.20
2018-09-15T22:18:17.156Z,15.10
2018-09-15T22:20:45.865Z,15.10
2018-09-15T22:23:14.653Z,15.10
2018-09-15T22:25:43.406Z,15.00
2018-09-15T22:28:12.218Z,15.00
2018-09-15T22:30:40.869Z,14.90
2018-09-15T22:33:09.866Z,14.80
2018-09-15T22:35:38.440Z,14.70
2018-09-15T22:38:06.997Z,14.60
2018-09-15T22:40:35.912Z,14.50
2018-09-15T22:43:04.604Z,14.40
2018-09-15T22:45:33.324Z,14.30
2018-09-15T22:48:02.010Z,14.20
2018-09-15T22:50:30.712Z,14.00
2018-09-15T22:52:59.353Z,14.00
2018-09-15T22:55:28.023Z,14.00
2018-09-15T22:57:56.706Z,13.90
2018-09-15T23:00:25.648Z,13.90
2018-09-15T23:02:54.297Z,13.90
2018-09-15T23:05:23.095Z,13.90
2018-09-15T23:07:51.770Z,13.80
2018-09-15T23:10:20.462Z,13.70
2018-09-15T23:12:49.099Z,13.70
2018-09-15T23:15:17.856Z,13.80
2018-09-15T23:17:46.383Z,13.70
2018-09-15T23:20:15.046Z,13.80
2018-09-15T23:22:43.790Z,13.70
2018-09-15T23:25:12.410Z,13.70
2018-09-15T23:27:41.095Z,13.70
2018-09-15T23:30:10.076Z,13.60
2018-09-15T23:32:38.840Z,13.70
2018-09-15T23:35:07.529Z,13.70
2018-09-15T23:37:36.225Z,13.70
2018-09-15T23:40:05.017Z,13.70
2018-09-15T23:42:33.884Z,13.70
2018-09-15T23:45:02.635Z,13.60
2018-09-15T23:47:31.260Z,13.60
2018-09-15T23:50:00.051Z,13.50
2018-09-15T23:52:28.725Z,13.40
2018-09-15T23:54:57.397Z,13.30
2018-09-15T23:57:26.130Z,13.30
2018-09-15T23:59:54.819Z,13.30
